Terre Haute, IN (47805)

10:48 AM EST on February 06, 2016 (GMT -0500)
Sandcut/North Terre Haute | | Change Station
CLOSE
Current Station
Personal Weather Station
Location: Terre Haute, IN
Elevation: 590 ft
Nearby Weather Stations

Elev 590 ft 39.56 °N, 87.30 °W | Updated 2 seconds ago

Mostly Cloudy
Mostly Cloudy
34.0 °F
Feels Like 34 °F
N
1.1
Wind Variable Wind from SW
Gusts 2.0 mph

Today
High -- | Low -- °F
--% Chance of Precip.
Yesterday
High -- | Low -- °F
Precip. -- in
Pressure 30.38 in
Visibility 7.0 miles
Clouds Mostly Cloudy 6500 ft
Windchill 34 °F
Dew Point 28 °F
Humidity 77%
Rainfall 0.00 in
Snow Depth Not available.
7:52 AM 6:14 PM
Waning Crescent, 5% visible
METAR KHUF 061453Z 16003KT 7SM BKN065 M02/M04 A3036 RMK AO2 SLP286 T10171039 51007
Pressure 30.38 in
Visibility 7.0 miles
Clouds Mostly Cloudy 6500 ft
Windchill 34 °F
Dew Point 28 °F
Humidity 77%
Rainfall 0.00 in
Snow Depth Not available.
7:52 AM 6:14 PM
Waning Crescent, 5% visible
METAR KHUF 061453Z 16003KT 7SM BKN065 M02/M04 A3036 RMK AO2 SLP286 T10171039 51007

10-Day Weather Forecast

Almanac

Astronomy

Feb. 06, 2016 Rise Set
Actual Time
Civil Twilight
Nautical Twilight
Astronomical Twilight
Moon
Length of Visible Light
Length of Day
Tomorrow will be .
, % of the Moon is Illuminated

Today's Extremes

State Highs State Lows

Community

WunderPhotos

Upload Photos

1,890,987 photos uploaded!

WunderBlog® & News

Nearby

Air Quality

  Air Quality AQ Index Pollutant
Not available.

Snow Depth

Station Depth Elevation

Earthquake Activity

City Distance Mag. Time & Date
Minimum magnitude displayed is 2.5.

Coastal Water Temperatures

Place Temperature

Stations

Nearby Weather Stations

Station Location Temp. Windchill Dew Point Humidity Wind Precip. Elev Updated Type
                   

Watches & Warnings

There are currently no watches in effect.